Time;durP1;ratioP1;P1;durP2;ratioP2;P2;SDS_P1;SDS_P2;PMS_P1;PMS_P2;Temp;Humidity;BMP_temperature;BMP_pressure;BME280_temperature;BME280_humidity;BME280_pressure;Samples;Min_cycle;Max_cycle;Signal;HPM_P1;HPM_P2
2023/08/29 00:02:23;;;;;;;12.45;6.63;;;13.20;99.90;;;;;;5062854;28;20705;-76
2023/08/29 00:04:49;;;;;;;10.15;6.43;;;13.20;99.90;;;;;;5087094;28;20028;-76
2023/08/29 00:07:14;;;;;;;10.60;6.35;;;13.20;99.90;;;;;;5071273;28;20115;-82
2023/08/29 00:09:40;;;;;;;8.90;5.93;;;13.20;99.90;;;;;;5070774;28;20048;-78
2023/08/29 00:12:06;;;;;;;11.38;6.32;;;13.20;99.90;;;;;;5071349;28;20558;-77
2023/08/29 00:14:31;;;;;;;9.40;6.57;;;13.30;99.90;;;;;;5072190;28;20021;-78
2023/08/29 00:16:57;;;;;;;11.15;6.78;;;13.30;99.90;;;;;;5061022;28;20099;-76
2023/08/29 00:19:23;;;;;;;9.30;5.80;;;13.30;99.90;;;;;;5069327;28;20628;-78
2023/08/29 00:21:48;;;;;;;9.45;6.63;;;13.30;99.90;;;;;;5063600;28;20032;-78
2023/08/29 00:24:14;;;;;;;13.02;6.65;;;13.20;99.90;;;;;;5069867;28;20036;-82
2023/08/29 00:26:41;;;;;;;10.93;6.70;;;13.20;99.90;;;;;;5069857;28;20087;-78
2023/08/29 00:29:06;;;;;;;11.20;6.53;;;13.30;99.90;;;;;;5070054;28;20029;-75
2023/08/29 00:31:32;;;;;;;8.85;5.95;;;13.30;99.90;;;;;;5070795;28;20487;-78
2023/08/29 00:33:58;;;;;;;11.48;6.57;;;13.30;99.90;;;;;;5077905;28;20448;-76
2023/08/29 00:36:23;;;;;;;14.13;6.32;;;13.30;99.90;;;;;;5065653;28;20056;-76
2023/08/29 00:38:49;;;;;;;11.05;5.93;;;13.20;99.90;;;;;;5070598;28;20465;-76
2023/08/29 00:41:14;;;;;;;10.57;6.43;;;13.20;99.90;;;;;;5090284;28;20032;-82
2023/08/29 00:43:40;;;;;;;9.50;5.63;;;13.20;99.90;;;;;;5089162;28;20074;-76
2023/08/29 00:46:09;;;;;;;9.27;6.47;;;13.20;99.90;;;;;;5079351;28;20083;-75
2023/08/29 00:48:35;;;;;;;11.73;6.72;;;13.20;99.90;;;;;;5055490;28;20805;-76
2023/08/29 00:51:00;;;;;;;9.70;6.78;;;13.20;99.90;;;;;;5058283;28;20032;-76
2023/08/29 00:53:27;;;;;;;11.18;6.20;;;13.20;99.90;;;;;;5066318;28;20162;-75
2023/08/29 00:55:52;;;;;;;9.82;6.50;;;13.20;99.90;;;;;;5069506;28;20037;-79
2023/08/29 00:58:19;;;;;;;11.68;6.15;;;13.20;99.90;;;;;;5067927;28;20036;-79
2023/08/29 01:00:45;;;;;;;12.35;6.45;;;13.20;99.90;;;;;;5068278;28;20033;-79
2023/08/29 01:03:11;;;;;;;8.88;6.07;;;13.10;99.90;;;;;;5065974;28;20035;-76
2023/08/29 01:05:37;;;;;;;9.60;6.45;;;13.30;99.90;;;;;;5069786;28;20285;-76
2023/08/29 01:08:03;;;;;;;13.15;6.60;;;13.20;99.90;;;;;;5068284;28;20047;-78
2023/08/29 01:10:47;;;;;;;12.23;6.65;;;13.20;99.90;;;;;;5041551;28;20131;-77
2023/08/29 01:13:47;;;;;;;12.30;6.57;;;13.20;99.90;;;;;;5055241;28;20063;-77
2023/08/29 01:16:15;;;;;;;9.35;6.65;;;13.20;99.90;;;;;;5064488;28;20026;-77
2023/08/29 01:18:43;;;;;;;11.02;6.43;;;13.10;99.90;;;;;;5077893;28;20033;-75
2023/08/29 01:21:28;;;;;;;10.52;6.13;;;13.10;99.90;;;;;;5070207;28;20041;-78
2023/08/29 01:24:02;;;;;;;11.70;7.05;;;13.20;99.90;;;;;;5051836;28;20040;-74
2023/08/29 01:26:29;;;;;;;11.50;6.55;;;13.10;99.90;;;;;;5063407;28;20028;-78
2023/08/29 01:28:56;;;;;;;11.88;6.72;;;13.20;99.90;;;;;;5068823;28;20036;-77
2023/08/29 01:31:22;;;;;;;9.90;6.38;;;13.10;99.90;;;;;;5061285;28;20056;-81
2023/08/29 01:33:48;;;;;;;9.77;6.00;;;13.10;99.90;;;;;;5072755;28;20468;-79
2023/08/29 01:36:14;;;;;;;11.90;6.50;;;13.20;99.90;;;;;;5090003;28;20028;-77
2023/08/29 01:38:39;;;;;;;11.18;6.70;;;13.20;99.90;;;;;;5089333;28;20051;-77
2023/08/29 01:41:05;;;;;;;11.10;6.38;;;13.20;99.90;;;;;;5084163;28;20539;-75
2023/08/29 01:43:30;;;;;;;9.88;6.15;;;13.30;99.90;;;;;;5048575;28;20052;-77
2023/08/29 01:45:56;;;;;;;8.68;5.97;;;13.20;99.90;;;;;;5049607;28;20032;-75
2023/08/29 01:48:22;;;;;;;9.73;6.35;;;13.30;99.90;;;;;;5067733;28;20051;-83
2023/08/29 01:50:48;;;;;;;9.98;5.95;;;13.30;99.90;;;;;;5088585;28;20118;-75
2023/08/29 01:53:14;;;;;;;13.90;6.25;;;13.20;99.90;;;;;;5069601;28;20040;-79
2023/08/29 01:55:40;;;;;;;13.40;6.63;;;13.20;99.90;;;;;;5052619;28;20029;-78
2023/08/29 01:58:07;;;;;;;14.20;6.93;;;13.20;99.90;;;;;;5058849;28;20024;-76
2023/08/29 02:00:34;;;;;;;11.38;6.97;;;13.10;99.90;;;;;;5069442;28;20050;-76
2023/08/29 02:03:00;;;;;;;11.63;6.55;;;13.00;99.90;;;;;;5069295;28;20044;-76
2023/08/29 02:05:25;;;;;;;12.07;7.43;;;13.10;99.90;;;;;;5079489;28;20064;-76
2023/08/29 02:07:51;;;;;;;13.23;7.25;;;13.10;99.90;;;;;;5066167;28;20051;-76
2023/08/29 02:10:17;;;;;;;10.63;6.50;;;13.00;99.90;;;;;;5065907;28;20438;-77
2023/08/29 02:12:42;;;;;;;14.20;6.97;;;12.80;99.90;;;;;;5059910;28;20046;-80
2023/08/29 02:15:09;;;;;;;13.27;6.97;;;12.80;99.90;;;;;;5066885;28;20431;-78
2023/08/29 02:17:36;;;;;;;13.00;7.15;;;12.80;99.90;;;;;;5077525;28;20095;-78
2023/08/29 02:20:06;;;;;;;10.82;6.65;;;12.80;99.90;;;;;;5069356;28;20033;-75
2023/08/29 02:22:32;;;;;;;11.48;7.53;;;12.80;99.90;;;;;;5069301;28;20020;-76
2023/08/29 02:25:00;;;;;;;16.40;7.35;;;12.70;99.90;;;;;;5070507;28;20102;-76
2023/08/29 02:27:26;;;;;;;10.45;6.65;;;12.80;99.90;;;;;;5070919;28;20028;-77
2023/08/29 02:29:52;;;;;;;11.07;7.68;;;12.60;99.90;;;;;;5068581;28;20484;-75
2023/08/29 02:32:18;;;;;;;11.02;8.00;;;12.70;99.90;;;;;;5064492;28;20040;-76
2023/08/29 02:34:43;;;;;;;11.70;7.50;;;12.70;99.90;;;;;;5052765;28;20114;-77
2023/08/29 02:37:09;;;;;;;12.07;7.38;;;12.70;99.90;;;;;;5071843;28;20055;-75
2023/08/29 02:39:35;;;;;;;11.43;7.60;;;12.60;99.90;;;;;;5070646;28;20032;-75
2023/08/29 02:42:00;;;;;;;10.68;7.75;;;12.60;99.90;;;;;;5055000;28;20527;-76
2023/08/29 02:44:26;;;;;;;10.23;7.15;;;12.60;99.90;;;;;;5066553;28;20032;-82
2023/08/29 02:46:52;;;;;;;12.52;7.30;;;12.70;99.90;;;;;;5071144;28;20465;-77
2023/08/29 02:49:17;;;;;;;13.77;7.20;;;12.70;99.90;;;;;;5070951;28;20045;-75
2023/08/29 02:51:44;;;;;;;10.75;7.68;;;12.70;99.90;;;;;;5066545;28;20044;-77
2023/08/29 02:54:10;;;;;;;10.98;6.88;;;12.70;99.90;;;;;;5069920;28;20032;-78
2023/08/29 02:56:35;;;;;;;10.98;7.25;;;12.90;99.90;;;;;;5070867;28;20035;-77
2023/08/29 02:59:01;;;;;;;14.35;8.05;;;12.80;99.90;;;;;;5058875;28;20112;-77
2023/08/29 03:01:27;;;;;;;10.55;6.63;;;12.90;99.90;;;;;;5065622;28;20029;-82
2023/08/29 03:03:53;;;;;;;11.38;7.25;;;12.80;99.90;;;;;;5065323;28;20036;-78
2023/08/29 03:06:18;;;;;;;13.88;7.72;;;12.80;99.90;;;;;;5062035;28;20033;-77
2023/08/29 03:08:44;;;;;;;12.88;7.03;;;12.90;99.90;;;;;;5060828;28;20521;-77
2023/08/29 03:11:10;;;;;;;10.10;7.15;;;12.80;99.90;;;;;;5069431;28;20485;-77
2023/08/29 03:13:36;;;;;;;13.48;7.45;;;12.80;99.90;;;;;;5063979;28;20041;-76
2023/08/29 03:16:09;;;;;;;14.80;7.53;;;12.90;99.90;;;;;;5061613;28;20021;-75
2023/08/29 03:18:35;;;;;;;12.13;7.28;;;12.90;99.90;;;;;;5044192;28;20464;-79
2023/08/29 03:21:05;;;;;;;11.55;7.80;;;12.80;99.90;;;;;;5067834;28;20079;-76
2023/08/29 03:23:31;;;;;;;12.57;7.25;;;12.90;99.90;;;;;;5041377;28;20489;-77
2023/08/29 03:26:04;;;;;;;12.02;7.72;;;13.00;99.90;;;;;;5050101;28;20119;-76
2023/08/29 03:28:30;;;;;;;13.20;7.57;;;12.90;99.90;;;;;;5067525;28;20061;-76
2023/08/29 03:30:55;;;;;;;15.23;7.20;;;12.90;99.90;;;;;;5067726;28;20504;-75
2023/08/29 03:33:21;;;;;;;13.57;7.32;;;12.80;99.90;;;;;;5067674;28;20028;-76
2023/08/29 03:35:57;;;;;;;10.13;6.85;;;13.00;99.90;;;;;;5065672;28;20172;-74
2023/08/29 03:38:23;;;;;;;11.23;6.93;;;13.00;99.90;;;;;;5050333;28;20131;-77
2023/08/29 03:40:58;;;;;;;11.40;7.05;;;12.90;99.90;;;;;;5065576;28;20152;-75
2023/08/29 03:43:27;;;;;;;12.52;7.45;;;12.90;99.90;;;;;;5068142;28;20103;-76
2023/08/29 03:45:57;;;;;;;11.15;7.00;;;12.80;99.90;;;;;;5059556;28;20037;-77
2023/08/29 03:48:23;;;;;;;11.82;7.07;;;12.80;99.90;;;;;;5056195;28;20110;-76
2023/08/29 03:50:49;;;;;;;12.45;7.40;;;12.70;99.90;;;;;;5057124;28;20045;-74
2023/08/29 03:53:15;;;;;;;12.27;7.43;;;12.60;99.90;;;;;;5070272;28;20496;-77
2023/08/29 03:55:40;;;;;;;12.10;7.15;;;12.60;99.90;;;;;;5067664;28;20108;-74
2023/08/29 03:58:06;;;;;;;16.90;7.50;;;12.60;99.90;;;;;;5060020;28;20941;-78
2023/08/29 04:00:32;;;;;;;14.50;7.75;;;12.60;99.90;;;;;;5060799;28;20028;-77
2023/08/29 04:02:59;;;;;;;14.18;7.40;;;12.60;99.90;;;;;;5068069;28;20044;-78
2023/08/29 04:05:25;;;;;;;12.52;6.97;;;12.50;99.90;;;;;;5058698;28;20028;-77
2023/08/29 04:07:51;;;;;;;11.93;7.28;;;12.50;99.90;;;;;;5069712;28;20033;-76
2023/08/29 04:10:17;;;;;;;10.93;7.22;;;12.60;99.90;;;;;;5063814;28;20029;-77
2023/08/29 04:12:42;;;;;;;13.52;8.13;;;12.60;99.90;;;;;;5050595;28;20036;-79
2023/08/29 04:15:10;;;;;;;15.38;8.65;;;12.60;99.90;;;;;;5053902;28;20029;-77
2023/08/29 04:17:36;;;;;;;12.10;8.05;;;12.60;99.90;;;;;;5050578;28;20028;-76
2023/08/29 04:20:08;;;;;;;12.02;7.70;;;12.70;99.90;;;;;;5070857;28;20094;-76
2023/08/29 04:22:38;;;;;;;13.95;7.45;;;12.70;99.90;;;;;;5070689;28;20136;-79
2023/08/29 04:25:06;;;;;;;14.80;8.55;;;12.70;99.90;;;;;;5067082;28;20032;-75
2023/08/29 04:27:32;;;;;;;14.57;8.02;;;12.70;99.90;;;;;;5078471;28;20578;-75
2023/08/29 04:29:58;;;;;;;12.63;8.50;;;12.70;99.90;;;;;;5071091;28;20036;-77
2023/08/29 04:32:24;;;;;;;15.82;8.00;;;12.70;99.90;;;;;;5066160;28;20044;-76
2023/08/29 04:34:50;;;;;;;14.90;7.85;;;12.70;99.90;;;;;;5067991;28;20032;-77
2023/08/29 04:37:16;;;;;;;11.93;7.97;;;12.80;99.90;;;;;;5068489;28;20088;-76
2023/08/29 04:39:42;;;;;;;14.88;7.78;;;12.80;99.90;;;;;;5062500;28;20029;-75
2023/08/29 04:42:08;;;;;;;14.27;7.45;;;12.80;99.90;;;;;;5034083;28;20059;-77
2023/08/29 04:44:34;;;;;;;14.80;7.93;;;12.80;99.90;;;;;;5062026;28;20473;-77
2023/08/29 04:47:00;;;;;;;12.27;7.88;;;12.80;99.90;;;;;;5053066;28;20092;-74
2023/08/29 04:49:26;;;;;;;14.77;8.15;;;12.70;99.90;;;;;;5041763;28;20468;-77
2023/08/29 04:51:51;;;;;;;12.82;7.28;;;12.70;99.90;;;;;;5061960;28;20044;-76
2023/08/29 04:54:17;;;;;;;12.75;7.10;;;12.70;99.90;;;;;;5075952;28;20032;-75
2023/08/29 04:56:43;;;;;;;14.18;7.68;;;12.70;99.90;;;;;;5072600;28;20593;-79
2023/08/29 04:59:08;;;;;;;13.65;7.68;;;12.70;99.90;;;;;;5070892;28;20397;-75
2023/08/29 05:01:34;;;;;;;15.02;8.50;;;12.70;99.90;;;;;;5060631;28;20056;-81
2023/08/29 05:03:59;;;;;;;12.05;7.28;;;12.70;99.90;;;;;;5068300;28;20108;-75
2023/08/29 05:06:25;;;;;;;14.95;7.45;;;12.70;99.90;;;;;;5081735;28;20349;-75
2023/08/29 05:08:51;;;;;;;11.25;7.43;;;12.70;99.90;;;;;;5060255;28;20672;-75
2023/08/29 05:11:17;;;;;;;12.88;7.93;;;12.80;99.90;;;;;;5071456;28;20090;-76
2023/08/29 05:13:43;;;;;;;16.20;8.07;;;12.80;99.90;;;;;;5069022;28;20024;-75
2023/08/29 05:16:09;;;;;;;15.05;8.35;;;12.80;99.90;;;;;;5074147;28;20479;-77
2023/08/29 05:18:35;;;;;;;14.93;7.93;;;12.80;99.90;;;;;;5064145;28;20538;-82
2023/08/29 05:21:00;;;;;;;13.35;8.02;;;12.70;99.90;;;;;;5066292;28;20539;-75
2023/08/29 05:23:26;;;;;;;14.18;8.55;;;12.70;99.90;;;;;;5074486;28;20508;-75
2023/08/29 05:25:52;;;;;;;10.52;7.47;;;12.70;99.90;;;;;;5072345;28;20103;-76
2023/08/29 05:28:18;;;;;;;14.52;8.18;;;12.60;99.90;;;;;;5072428;28;20199;-76
2023/08/29 05:30:44;;;;;;;14.05;8.60;;;12.70;99.90;;;;;;5081497;28;20033;-75
2023/08/29 05:33:10;;;;;;;12.43;7.60;;;12.70;99.90;;;;;;5057640;28;20814;-76
2023/08/29 05:35:35;;;;;;;16.67;7.90;;;12.60;99.90;;;;;;5069372;28;20032;-80
2023/08/29 05:38:01;;;;;;;14.27;8.40;;;12.60;99.90;;;;;;5083953;28;20097;-78
2023/08/29 05:40:27;;;;;;;13.15;8.45;;;12.60;99.90;;;;;;5074618;28;20061;-77
2023/08/29 05:42:52;;;;;;;14.07;8.48;;;12.60;99.90;;;;;;5068086;28;20020;-78
2023/08/29 05:45:18;;;;;;;15.68;8.77;;;12.60;99.90;;;;;;5068911;28;20047;-76
2023/08/29 05:47:44;;;;;;;14.18;8.50;;;12.60;99.90;;;;;;5068133;28;20025;-76
2023/08/29 05:50:09;;;;;;;14.02;8.40;;;12.60;99.90;;;;;;5066777;28;20098;-77
2023/08/29 05:52:35;;;;;;;13.45;7.90;;;12.60;99.90;;;;;;5048267;28;20032;-81
2023/08/29 05:55:01;;;;;;;12.57;8.20;;;12.50;99.90;;;;;;5077190;28;20452;-78
2023/08/29 05:57:26;;;;;;;16.75;9.13;;;12.60;99.90;;;;;;5052688;28;20113;-77
2023/08/29 05:59:53;;;;;;;13.35;8.15;;;12.60;99.90;;;;;;5066742;28;20041;-76
2023/08/29 06:02:20;;;;;;;15.82;9.43;;;12.60;99.90;;;;;;5066822;28;20082;-74
2023/08/29 06:04:46;;;;;;;14.48;9.15;;;12.70;99.90;;;;;;5063300;28;20029;-78
2023/08/29 06:07:12;;;;;;;17.13;8.98;;;12.60;99.90;;;;;;5044330;28;20056;-79
2023/08/29 06:09:37;;;;;;;18.08;9.55;;;12.60;99.90;;;;;;5064333;28;20039;-80
2023/08/29 06:12:04;;;;;;;13.68;8.63;;;12.70;99.90;;;;;;5042876;28;20169;-80
2023/08/29 06:14:30;;;;;;;13.73;8.93;;;12.70;99.90;;;;;;5073710;28;20073;-79
2023/08/29 06:16:56;;;;;;;18.13;9.20;;;12.80;99.90;;;;;;5081450;28;20035;-77
2023/08/29 06:19:22;;;;;;;13.68;8.65;;;12.80;99.90;;;;;;5060989;28;20036;-77
2023/08/29 06:21:48;;;;;;;14.50;9.23;;;12.80;99.90;;;;;;5074225;28;20032;-74
2023/08/29 06:24:14;;;;;;;13.13;8.88;;;12.90;99.90;;;;;;5077698;28;20024;-76
2023/08/29 06:26:40;;;;;;;23.83;10.10;;;12.90;99.90;;;;;;5061868;28;20050;-76
2023/08/29 06:29:06;;;;;;;15.65;9.35;;;13.00;99.90;;;;;;5070684;28;20038;-75
2023/08/29 06:31:31;;;;;;;14.32;9.60;;;13.00;99.90;;;;;;5048729;28;20036;-77
2023/08/29 06:33:57;;;;;;;15.15;9.35;;;13.00;99.90;;;;;;5054275;28;20020;-77
2023/08/29 06:36:23;;;;;;;15.32;9.20;;;13.00;99.90;;;;;;5064830;28;20452;-82
2023/08/29 06:38:48;;;;;;;19.67;10.05;;;13.10;99.90;;;;;;5067384;28;20088;-79
2023/08/29 06:41:14;;;;;;;15.57;10.25;;;13.10;99.90;;;;;;5066262;28;20235;-78
2023/08/29 06:43:40;;;;;;;14.82;9.23;;;13.10;99.90;;;;;;5072917;28;20040;-80
2023/08/29 06:46:05;;;;;;;16.00;9.00;;;13.10;99.90;;;;;;5066182;28;20066;-75
2023/08/29 06:48:31;;;;;;;15.63;9.82;;;13.10;99.90;;;;;;5070010;28;20464;-77
2023/08/29 06:50:56;;;;;;;17.40;10.70;;;13.10;99.90;;;;;;5069264;28;20044;-80
2023/08/29 06:53:25;;;;;;;14.75;9.07;;;13.10;99.90;;;;;;5071359;28;20032;-77
2023/08/29 06:55:50;;;;;;;14.73;9.80;;;13.10;99.90;;;;;;5060821;28;20465;-78
2023/08/29 06:58:16;;;;;;;16.92;9.93;;;13.10;99.90;;;;;;5078145;28;20035;-78
2023/08/29 07:00:42;;;;;;;15.73;9.38;;;13.10;99.90;;;;;;5064723;28;20117;-77
2023/08/29 07:03:07;;;;;;;15.77;10.35;;;13.00;99.90;;;;;;5063427;28;20024;-77
2023/08/29 07:05:33;;;;;;;16.00;9.73;;;13.00;99.90;;;;;;5071229;28;20546;-76
2023/08/29 07:07:59;;;;;;;19.30;10.40;;;13.10;99.90;;;;;;5070201;28;20032;-77
2023/08/29 07:10:26;;;;;;;15.25;10.05;;;13.10;99.90;;;;;;5049290;28;20163;-78
2023/08/29 07:12:51;;;;;;;17.42;10.13;;;13.10;99.90;;;;;;5081717;28;20031;-78
2023/08/29 07:15:17;;;;;;;15.98;10.15;;;13.10;99.90;;;;;;5074402;28;20533;-77
2023/08/29 07:17:42;;;;;;;17.52;10.27;;;13.20;99.90;;;;;;5050939;28;20024;-77
2023/08/29 07:20:08;;;;;;;18.75;10.65;;;13.30;99.90;;;;;;5060876;28;20492;-77
2023/08/29 07:22:36;;;;;;;17.27;10.95;;;13.40;99.90;;;;;;5070753;28;20028;-77
2023/08/29 07:25:03;;;;;;;13.85;9.88;;;13.40;99.90;;;;;;5067390;28;20029;-78
2023/08/29 07:27:29;;;;;;;16.30;10.40;;;13.40;99.90;;;;;;5070221;28;20056;-80
2023/08/29 07:29:55;;;;;;;15.55;9.95;;;13.40;99.90;;;;;;5085916;28;20044;-79
2023/08/29 07:32:21;;;;;;;17.13;10.57;;;13.40;99.90;;;;;;5057710;28;20028;-76
2023/08/29 07:34:46;;;;;;;17.85;9.60;;;13.50;99.90;;;;;;5062869;28;20028;-79
2023/08/29 07:37:12;;;;;;;15.45;10.23;;;13.50;99.90;;;;;;5061772;28;20040;-79
2023/08/29 07:39:38;;;;;;;15.27;9.68;;;13.50;99.90;;;;;;5054485;28;20560;-78
2023/08/29 07:42:04;;;;;;;14.73;9.65;;;13.50;99.90;;;;;;5066670;28;20734;-79
2023/08/29 07:44:29;;;;;;;15.23;10.13;;;13.50;99.90;;;;;;5055359;28;20501;-77
2023/08/29 07:46:55;;;;;;;13.13;9.07;;;13.50;99.90;;;;;;5057019;28;20126;-80
2023/08/29 07:49:21;;;;;;;13.80;9.45;;;13.50;99.90;;;;;;5070256;28;20496;-78
2023/08/29 07:51:51;;;;;;;13.55;9.68;;;13.50;99.90;;;;;;5064422;28;20108;-79
2023/08/29 07:54:17;;;;;;;15.05;9.52;;;13.50;99.90;;;;;;5064736;28;20016;-80
2023/08/29 07:56:42;;;;;;;15.95;9.70;;;13.60;99.90;;;;;;5062434;28;20032;-80
2023/08/29 07:59:08;;;;;;;13.93;9.30;;;13.70;99.90;;;;;;5060633;28;20044;-79
2023/08/29 08:01:33;;;;;;;15.80;10.13;;;13.70;99.90;;;;;;5056348;28;20033;-80
2023/08/29 08:04:03;;;;;;;19.30;9.43;;;13.70;99.90;;;;;;5044412;28;20712;-81
2023/08/29 08:06:29;;;;;;;15.18;9.32;;;13.70;99.90;;;;;;5045096;28;20033;-81
2023/08/29 08:08:56;;;;;;;14.20;9.90;;;13.80;99.90;;;;;;5048035;28;20159;-81
2023/08/29 08:11:23;;;;;;;12.50;8.20;;;13.80;99.90;;;;;;5067482;28;20025;-82
2023/08/29 08:13:51;;;;;;;14.05;8.98;;;13.80;99.90;;;;;;5059418;28;20155;-81
2023/08/29 08:16:22;;;;;;;14.00;9.60;;;13.80;99.90;;;;;;5045031;28;20024;-77
2023/08/29 08:18:47;;;;;;;16.45;9.35;;;13.80;99.90;;;;;;5056496;28;20102;-79
2023/08/29 08:21:13;;;;;;;14.73;8.93;;;13.90;99.90;;;;;;5064576;28;20550;-82
2023/08/29 08:23:39;;;;;;;14.60;9.85;;;13.90;99.90;;;;;;5067725;28;20028;-79
2023/08/29 08:26:05;;;;;;;13.20;8.82;;;13.90;99.90;;;;;;5068883;28;20032;-78
2023/08/29 08:28:30;;;;;;;14.65;9.30;;;13.90;99.90;;;;;;5047683;28;20103;-81
2023/08/29 08:30:56;;;;;;;14.32;9.43;;;14.00;99.90;;;;;;5066588;28;20186;-80
2023/08/29 08:33:24;;;;;;;14.25;8.82;;;14.20;99.90;;;;;;5066561;28;20036;-79
2023/08/29 08:35:50;;;;;;;14.68;8.80;;;14.20;99.90;;;;;;5066211;28;20029;-82
2023/08/29 08:38:16;;;;;;;13.80;9.15;;;14.30;99.90;;;;;;5059728;28;20048;-80
2023/08/29 08:40:42;;;;;;;14.27;8.98;;;14.30;99.90;;;;;;5064590;28;20037;-78
2023/08/29 08:43:11;;;;;;;13.85;9.15;;;14.30;99.90;;;;;;5066467;28;20081;-79
2023/08/29 08:45:39;;;;;;;14.93;9.23;;;14.30;99.90;;;;;;5039613;28;20385;-80
2023/08/29 08:48:05;;;;;;;12.95;9.18;;;14.30;99.90;;;;;;5062940;28;20036;-80
2023/08/29 08:50:31;;;;;;;12.52;8.65;;;14.40;99.90;;;;;;5073060;28;20035;-77
2023/08/29 08:52:59;;;;;;;15.85;8.30;;;14.40;99.90;;;;;;5081904;28;20158;-80
2023/08/29 08:55:28;;;;;;;12.52;8.45;;;14.40;99.90;;;;;;5069482;28;20067;-80
2023/08/29 08:57:54;;;;;;;12.95;8.73;;;14.50;99.90;;;;;;5066825;28;20293;-81
2023/08/29 09:00:22;;;;;;;15.02;8.73;;;14.50;99.90;;;;;;5082955;28;20063;-81
2023/08/29 09:02:51;;;;;;;13.82;8.82;;;14.50;99.90;;;;;;5057817;28;20133;-79
2023/08/29 09:05:18;;;;;;;14.68;9.30;;;14.60;99.90;;;;;;5063511;28;20420;-78
2023/08/29 09:07:44;;;;;;;12.73;9.30;;;14.80;99.90;;;;;;5068994;28;20085;-79
2023/08/29 09:10:12;;;;;;;13.95;9.25;;;14.90;99.90;;;;;;5066389;28;20049;-78
2023/08/29 09:12:51;;;;;;;12.25;8.75;;;15.00;99.90;;;;;;5057329;28;20108;-79
2023/08/29 09:15:19;;;;;;;12.23;8.63;;;15.00;99.90;;;;;;5057921;28;20432;-78
2023/08/29 09:17:51;;;;;;;14.32;8.77;;;15.00;99.90;;;;;;5067510;28;20503;-78
2023/08/29 09:20:18;;;;;;;13.55;8.93;;;15.10;99.90;;;;;;5049142;28;20044;-78
2023/08/29 09:22:45;;;;;;;12.00;8.27;;;15.10;99.90;;;;;;5068281;28;20032;-78
2023/08/29 09:25:13;;;;;;;11.68;7.70;;;15.00;99.90;;;;;;5071773;28;20021;-76
2023/08/29 09:27:44;;;;;;;10.95;7.57;;;15.10;99.90;;;;;;5066628;28;20436;-82
2023/08/29 09:30:15;;;;;;;9.80;7.38;;;15.20;99.90;;;;;;5060935;28;20036;-81
2023/08/29 09:32:44;;;;;;;10.70;7.28;;;15.20;99.90;;;;;;5058318;28;20055;-77
2023/08/29 09:35:19;;;;;;;10.95;7.20;;;15.20;99.90;;;;;;5066376;28;20743;-81
2023/08/29 09:37:54;;;;;;;10.40;7.80;;;15.30;99.90;;;;;;5056766;28;20045;-80
2023/08/29 09:40:23;;;;;;;11.80;7.80;;;15.10;99.90;;;;;;5031393;28;20528;-81
2023/08/29 09:43:00;;;;;;;13.05;8.13;;;15.20;99.90;;;;;;5065017;28;20115;-83
2023/08/29 09:45:29;;;;;;;10.88;7.38;;;15.20;99.90;;;;;;5062526;28;20033;-81
2023/08/29 09:48:06;;;;;;;11.85;7.78;;;15.10;99.90;;;;;;5063258;28;20061;-81
2023/08/29 09:50:32;;;;;;;9.57;7.15;;;15.10;99.90;;;;;;5067969;28;20043;-82
2023/08/29 09:53:05;;;;;;;12.85;7.60;;;15.20;99.90;;;;;;5073346;28;20020;-82
2023/08/29 09:55:36;;;;;;;10.23;6.85;;;15.30;99.90;;;;;;5064297;28;20491;-82
2023/08/29 09:58:04;;;;;;;;;;;15.40;99.90;;;;;;5065247;28;20024;-80
2023/08/29 10:00:31;;;;;;;9.80;5.90;;;15.40;99.90;;;;;;5052139;28;20350;-80
2023/08/29 10:03:00;;;;;;;9.00;6.25;;;15.50;99.90;;;;;;5045626;28;20028;-79
2023/08/29 10:05:33;;;;;;;8.23;5.47;;;15.60;99.90;;;;;;5036521;28;20095;-79
2023/08/29 10:08:05;;;;;;;6.68;5.38;;;15.80;99.90;;;;;;5053884;28;20859;-79
2023/08/29 10:10:31;;;;;;;8.10;5.82;;;15.80;99.90;;;;;;5069690;28;20133;-77
2023/08/29 10:12:58;;;;;;;13.85;5.82;;;15.60;99.90;;;;;;5057912;28;20032;-78
2023/08/29 10:15:27;;;;;;;10.75;6.40;;;15.70;99.90;;;;;;5060740;28;20508;-77
2023/08/29 10:17:56;;;;;;;9.07;5.55;;;15.70;99.90;;;;;;5055980;28;20025;-77
2023/08/29 10:20:26;;;;;;;6.18;4.80;;;15.70;99.90;;;;;;5060390;28;20123;-77
2023/08/29 10:22:54;;;;;;;7.05;5.10;;;15.70;99.90;;;;;;5057037;28;20029;-78
2023/08/29 10:25:21;;;;;;;6.50;5.20;;;15.60;99.90;;;;;;5059748;28;20032;-79
2023/08/29 10:27:49;;;;;;;7.63;5.40;;;15.60;99.90;;;;;;5062969;28;20036;-79
2023/08/29 10:30:18;;;;;;;9.55;5.80;;;15.50;99.90;;;;;;5036914;28;20076;-82
2023/08/29 10:32:46;;;;;;;9.18;6.22;;;15.40;99.90;;;;;;5067897;28;20099;-80
2023/08/29 10:35:20;;;;;;;7.82;6.05;;;15.40;99.90;;;;;;5054513;28;20020;-79
2023/08/29 10:37:53;;;;;;;11.82;5.78;;;15.40;99.90;;;;;;5049617;28;20429;-79
2023/08/29 10:40:19;;;;;;;7.80;6.07;;;15.30;99.90;;;;;;5051959;28;20518;-79
2023/08/29 10:43:00;;;;;;;10.23;6.43;;;15.10;99.90;;;;;;5059670;28;20025;-79
2023/08/29 10:45:42;;;;;;;11.05;6.57;;;15.00;99.90;;;;;;5054564;28;20024;-78
2023/08/29 10:48:08;;;;;;;10.23;6.68;;;15.00;99.90;;;;;;5058971;28;20159;-85
2023/08/29 10:50:37;;;;;;;10.80;7.28;;;14.90;99.90;;;;;;5053740;28;20051;-79
2023/08/29 10:53:04;;;;;;;10.50;7.20;;;15.00;99.90;;;;;;5075846;28;20032;-79
2023/08/29 10:55:32;;;;;;;11.63;7.35;;;15.00;99.90;;;;;;5058894;28;20041;-79
2023/08/29 10:58:00;;;;;;;10.68;7.53;;;15.00;99.90;;;;;;5066398;28;20052;-79
2023/08/29 11:00:53;;;;;;;11.27;8.10;;;15.00;99.90;;;;;;5066758;28;20064;-80
2023/08/29 11:03:39;;;;;;;9.63;7.55;;;15.00;99.90;;;;;;5066207;28;20120;-80
2023/08/29 11:06:04;;;;;;;9.80;7.32;;;15.00;99.90;;;;;;5067247;28;20028;-79
2023/08/29 11:08:30;;;;;;;9.45;6.97;;;15.00;99.90;;;;;;5066116;28;20377;-78
2023/08/29 11:11:19;;;;;;;11.38;8.32;;;15.00;99.90;;;;;;5065781;28;20465;-77
2023/08/29 11:14:01;;;;;;;10.85;7.50;;;15.00;99.90;;;;;;5061782;28;20028;-77
2023/08/29 11:16:34;;;;;;;12.23;8.00;;;14.90;99.90;;;;;;5067077;28;20032;-78
2023/08/29 11:19:13;;;;;;;10.98;7.93;;;14.80;99.90;;;;;;5047005;28;20124;-80
2023/08/29 11:21:43;;;;;;;13.65;8.45;;;14.80;99.90;;;;;;5055108;28;20033;-83
2023/08/29 11:24:11;;;;;;;10.77;8.23;;;14.70;99.90;;;;;;5066873;28;20033;-80
2023/08/29 11:26:43;;;;;;;12.65;8.50;;;14.70;99.90;;;;;;5050977;28;20032;-80
2023/08/29 11:29:09;;;;;;;13.30;8.07;;;14.80;99.90;;;;;;5066234;28;20115;-81
2023/08/29 11:31:45;;;;;;;12.70;8.95;;;14.80;99.90;;;;;;5066639;28;20115;-80
2023/08/29 11:34:17;;;;;;;13.85;8.95;;;14.90;99.90;;;;;;5051896;28;20052;-80
2023/08/29 11:36:48;;;;;;;11.90;8.57;;;15.10;99.90;;;;;;5067812;28;20025;-78
2023/08/29 11:39:14;;;;;;;13.07;8.30;;;15.20;99.90;;;;;;5059212;28;20016;-80
2023/08/29 11:41:42;;;;;;;13.60;9.15;;;15.30;99.90;;;;;;5055132;28;20033;-79
2023/08/29 11:44:08;;;;;;;12.90;8.18;;;15.40;99.90;;;;;;5063347;28;20116;-78
2023/08/29 11:46:34;;;;;;;11.02;8.60;;;15.40;99.90;;;;;;5052585;28;20112;-79
2023/08/29 11:49:00;;;;;;;14.43;9.25;;;15.40;99.90;;;;;;5061918;28;20155;-79
2023/08/29 11:51:26;;;;;;;13.77;9.23;;;15.50;99.90;;;;;;5061677;28;20067;-77
2023/08/29 11:53:52;;;;;;;13.30;10.45;;;15.60;99.90;;;;;;5064982;28;20058;-78
2023/08/29 11:56:18;;;;;;;11.02;8.45;;;15.70;99.90;;;;;;5066740;28;20106;-80
2023/08/29 11:58:43;;;;;;;12.52;8.82;;;15.90;99.90;;;;;;5070992;28;20039;-80
2023/08/29 12:01:09;;;;;;;11.57;8.38;;;16.00;99.90;;;;;;5066274;28;20059;-80
2023/08/29 12:03:39;;;;;;;12.98;8.43;;;16.10;99.90;;;;;;5063903;28;20037;-79
2023/08/29 12:06:12;;;;;;;12.18;8.65;;;16.20;99.90;;;;;;5054862;28;20103;-81
2023/08/29 12:08:48;;;;;;;11.10;7.85;;;16.30;99.90;;;;;;5060947;28;20036;-79
2023/08/29 12:11:15;;;;;;;11.95;8.30;;;16.20;99.90;;;;;;5054031;28;20118;-82
2023/08/29 12:14:00;;;;;;;15.10;7.80;;;16.20;99.90;;;;;;5065899;28;20040;-79
2023/08/29 12:16:26;;;;;;;10.00;7.18;;;16.30;99.90;;;;;;5070074;28;20020;-79
2023/08/29 12:19:04;;;;;;;10.38;6.38;;;16.50;99.90;;;;;;5061978;28;20029;-81
2023/08/29 12:21:30;;;;;;;9.05;6.70;;;16.50;99.90;;;;;;5066758;28;20036;-82
2023/08/29 12:24:09;;;;;;;9.75;6.65;;;16.50;99.90;;;;;;5063259;28;20020;-77
2023/08/29 12:26:35;;;;;;;8.95;7.10;;;16.60;99.90;;;;;;5035913;28;20032;-79
2023/08/29 12:29:01;;;;;;;8.80;6.60;;;16.60;99.90;;;;;;5041516;28;20370;-79
2023/08/29 12:31:27;;;;;;;10.38;6.82;;;16.50;99.90;;;;;;5050257;28;20036;-79
2023/08/29 12:33:53;;;;;;;7.63;6.18;;;16.60;99.90;;;;;;5051713;28;20465;-79
2023/08/29 12:36:18;;;;;;;10.57;6.68;;;16.60;99.90;;;;;;5053006;28;20024;-80
2023/08/29 12:38:44;;;;;;;8.00;5.47;;;16.60;99.90;;;;;;5060607;28;20029;-79
2023/08/29 12:41:12;;;;;;;11.68;6.13;;;16.60;99.90;;;;;;5053794;28;20028;-79